La Dulce, Argentina
Current Conditions -  °F | °C
As of 4:00 PM on Saturday 20 Dec 2014 (Local Time) from SAZM Reporting Station
Scattered Clouds Scattered Clouds  
Wind Chill: 64°   Ceiling: Unl
Heat Index: 64°   Visibility: 6mi
Dew Point: 46°   Wind: 23mph
Humidity: 52%   Direction: 180°S
Pressure: 29.68"   Gusts: NA
Location:  38.28°S, 59.2°W
Report Text: SAZM 201900Z 18020KT 9999 FEW020 SCT20018/08 Q1005
Loading
Personal Weather Stations






























Interactive Weather Map New forecast layout! Learn more

10-Day Weather Forecast

Advertisements
Track Severe Weather on mobile